Strona główna
METAR-TAF:

METAR-TAF

Lotnisko :

Port lotniczy Ben Guriona w Tel Awiwie

Tel Awiw / Ben Gurion, Izrael

Szerokość geograficzna: 32-00N, Długość geograficzna: 034-54E, wysokość: 40 m

Aktualna obserwacja pogody

Raport powstał 32 minut temu, godzina 06:20 UTC
Wiatr 5 kt od południowo-południowy wschód
Temperatura 15°C
Wilgotność 63%
Ciśnienie 1020 hPa
Widzialność 10 km lub więcej
Mało chmury na wysokości 4000 ft

METAR: LLBG 100620Z 15005KT 9999 FEW040 15/08 Q1020 NOSIG

czas: 08:52 (06:52 UTC)

Prognoza

Raport powstał 1 godzina i 45 minut temu, godzina 05:07 UTC
Prognoza ważna od 10 godzina 06 UTC do 11 godzina 06 UTC
Wiatr 10 kt od południe
Widzialność 10 km lub więcej
Mało chmury na wysokości 4000 ft
Stopniowe zmiany
od 10 godzina 07 UTC do 10 godzina 09 UTC
Wiatr 13 kt od zachodnio-południowy zachód
Stopniowe zmiany
od 10 godzina 15 UTC do 10 godzina 17 UTC
Wiatr 10 kt od południe

TAF: LLBG 100507Z 1006/1106 18010KT 9999 FEW040 BECMG 1007/1009 24013KT BECMG 1015/1017 18010KT TX20/1012Z TN13/1104Z

Obserwacja i prognoza pogody dla ponad 4000 lotnisk (raport METAR i TAF).

Dostępne stacje oznaczono żółtymi i czerwonymi punktami na mapie.

Najedź kursorem aby zobaczyć nazwę stacji.

Kliknij aby zobaczyć obserwacje i prognozy pogody.

Aby zmienić mapę: kliknij na zielony przycisk z czarnym krzyżykiem, aby powiększyć; na zielony przycisk z myślnikiem, aby pomniejszyć; na zielone strzałki, aby przejść do map sąsiednich.


METAR-TAF: